KLWV/LWV METAR and TAF weather

Enter ICAO airport designator
Station Type Date Time Source
KLWV METAR 2020/04/06 11:53 UTC NOAA

KLWV 061153Z AUTO 00000KT 8SM SCT033 11/09 A3012 RMK AO2 SLP201 T01110094 10122 20111 53007 $


Station Type Date Time Source
KLWV Decoded METAR 2020/04/06 11:53 UTC NOAA

LAWRENCEVILLE-VINCENNES INTERNATIONAL , IL, United States (KLWV) 38-46N 87-36W 131M
Apr 06, 2020 - 07:53 AM EDT / 2020.04.06 1153 UTC
Wind: Calm:0
Visibility: 8 mile(s):0
Sky conditions: partly cloudy
Temperature: 52.0 F (11.1 C)
Dew Point: 48.9 F (9.4 C)
Relative Humidity: 89%
Pressure (altimeter): 30.12 in. Hg (1019 hPa)
Pressure tendency: 0.02 inches (0.7 hPa) higher than three hours ago
ob: KLWV 061153Z AUTO 00000KT 8SM SCT033 11/09 A3012 RMK AO2 SLP201 T01110094 10122 20111 53007
cycle: 12

Station Type Date Time Source
KLWV TAF UTC NOAA

Error!

Example: see airport list